sensor_id;sensor_type;location;lat;lon;timestamp;temperature;humidity
45066;DHT22;30830;53.704;10.004;2024-02-21T00:01:50;8.20;99.90
45066;DHT22;30830;53.704;10.004;2024-02-21T00:04:15;8.20;99.90
45066;DHT22;30830;53.704;10.004;2024-02-21T00:06:41;8.20;99.90
45066;DHT22;30830;53.704;10.004;2024-02-21T00:09:07;8.20;99.90
45066;DHT22;30830;53.704;10.004;2024-02-21T00:11:35;8.20;99.90
45066;DHT22;30830;53.704;10.004;2024-02-21T00:14:00;8.20;99.90
45066;DHT22;30830;53.704;10.004;2024-02-21T00:16:26;8.20;99.90
45066;DHT22;30830;53.704;10.004;2024-02-21T00:18:52;8.20;99.90
45066;DHT22;30830;53.704;10.004;2024-02-21T00:21:17;8.20;99.90
45066;DHT22;30830;53.704;10.004;2024-02-21T00:23:46;8.20;99.90
45066;DHT22;30830;53.704;10.004;2024-02-21T00:26:14;8.20;99.90
45066;DHT22;30830;53.704;10.004;2024-02-21T00:28:40;8.20;99.90
45066;DHT22;30830;53.704;10.004;2024-02-21T00:31:06;8.20;99.90
45066;DHT22;30830;53.704;10.004;2024-02-21T00:33:31;8.20;99.90
45066;DHT22;30830;53.704;10.004;2024-02-21T00:35:57;8.20;99.90
45066;DHT22;30830;53.704;10.004;2024-02-21T00:38:22;8.20;99.90
45066;DHT22;30830;53.704;10.004;2024-02-21T00:40:48;8.20;99.90
45066;DHT22;30830;53.704;10.004;2024-02-21T00:43:14;8.20;99.90
45066;DHT22;30830;53.704;10.004;2024-02-21T00:45:39;8.20;99.90
45066;DHT22;30830;53.704;10.004;2024-02-21T00:48:05;8.20;99.90
45066;DHT22;30830;53.704;10.004;2024-02-21T00:50:31;8.30;99.90
45066;DHT22;30830;53.704;10.004;2024-02-21T00:52:56;8.30;99.90
45066;DHT22;30830;53.704;10.004;2024-02-21T00:55:22;8.30;99.90
45066;DHT22;30830;53.704;10.004;2024-02-21T00:57:47;8.30;99.90
45066;DHT22;30830;53.704;10.004;2024-02-21T01:00:13;8.30;99.90
45066;DHT22;30830;53.704;10.004;2024-02-21T01:02:39;8.20;99.90
45066;DHT22;30830;53.704;10.004;2024-02-21T01:05:05;8.30;99.90
45066;DHT22;30830;53.704;10.004;2024-02-21T01:07:30;8.30;99.90
45066;DHT22;30830;53.704;10.004;2024-02-21T01:09:56;8.30;99.90
45066;DHT22;30830;53.704;10.004;2024-02-21T01:12:22;8.30;99.90
45066;DHT22;30830;53.704;10.004;2024-02-21T01:14:48;8.30;99.90
45066;DHT22;30830;53.704;10.004;2024-02-21T01:17:15;8.30;99.90
45066;DHT22;30830;53.704;10.004;2024-02-21T01:19:40;8.30;99.90
45066;DHT22;30830;53.704;10.004;2024-02-21T01:22:06;8.30;99.90
45066;DHT22;30830;53.704;10.004;2024-02-21T01:24:32;8.30;99.90
45066;DHT22;30830;53.704;10.004;2024-02-21T01:26:57;8.30;99.90
45066;DHT22;30830;53.704;10.004;2024-02-21T01:29:23;8.30;99.90
45066;DHT22;30830;53.704;10.004;2024-02-21T01:31:49;8.40;99.90
45066;DHT22;30830;53.704;10.004;2024-02-21T01:34:14;8.30;99.90
45066;DHT22;30830;53.704;10.004;2024-02-21T01:36:40;8.30;99.90
45066;DHT22;30830;53.704;10.004;2024-02-21T01:39:06;8.30;99.90
45066;DHT22;30830;53.704;10.004;2024-02-21T01:41:32;8.30;99.90
45066;DHT22;30830;53.704;10.004;2024-02-21T01:43:58;8.30;99.90
45066;DHT22;30830;53.704;10.004;2024-02-21T01:46:24;8.30;99.90
45066;DHT22;30830;53.704;10.004;2024-02-21T01:48:54;8.30;99.90
45066;DHT22;30830;53.704;10.004;2024-02-21T01:51:19;8.30;99.90
45066;DHT22;30830;53.704;10.004;2024-02-21T01:53:46;8.30;99.90
45066;DHT22;30830;53.704;10.004;2024-02-21T01:56:12;8.30;99.90
45066;DHT22;30830;53.704;10.004;2024-02-21T01:58:40;8.20;99.90
45066;DHT22;30830;53.704;10.004;2024-02-21T02:01:07;8.20;99.90
45066;DHT22;30830;53.704;10.004;2024-02-21T02:03:33;8.20;99.90
45066;DHT22;30830;53.704;10.004;2024-02-21T02:05:59;8.20;99.90
45066;DHT22;30830;53.704;10.004;2024-02-21T02:08:25;8.20;99.90
45066;DHT22;30830;53.704;10.004;2024-02-21T02:10:52;8.20;99.90
45066;DHT22;30830;53.704;10.004;2024-02-21T02:13:17;8.20;99.90
45066;DHT22;30830;53.704;10.004;2024-02-21T02:15:44;8.10;99.90
45066;DHT22;30830;53.704;10.004;2024-02-21T02:18:11;8.20;99.90
45066;DHT22;30830;53.704;10.004;2024-02-21T02:20:37;8.10;99.90
45066;DHT22;30830;53.704;10.004;2024-02-21T02:25:32;8.10;99.90
45066;DHT22;30830;53.704;10.004;2024-02-21T02:27:58;8.10;99.90
45066;DHT22;30830;53.704;10.004;2024-02-21T02:30:24;8.10;99.90
45066;DHT22;30830;53.704;10.004;2024-02-21T02:32:49;8.10;99.90
45066;DHT22;30830;53.704;10.004;2024-02-21T02:35:15;8.10;99.90
45066;DHT22;30830;53.704;10.004;2024-02-21T02:37:46;8.10;99.90
45066;DHT22;30830;53.704;10.004;2024-02-21T02:40:12;8.10;99.90
45066;DHT22;30830;53.704;10.004;2024-02-21T02:42:38;8.10;99.90
45066;DHT22;30830;53.704;10.004;2024-02-21T02:45:03;8.10;99.90
45066;DHT22;30830;53.704;10.004;2024-02-21T02:47:29;8.10;99.90
45066;DHT22;30830;53.704;10.004;2024-02-21T02:49:55;8.10;99.90
45066;DHT22;30830;53.704;10.004;2024-02-21T02:52:20;8.10;99.90
45066;DHT22;30830;53.704;10.004;2024-02-21T02:54:46;8.10;99.90
45066;DHT22;30830;53.704;10.004;2024-02-21T02:57:17;8.10;99.90
45066;DHT22;30830;53.704;10.004;2024-02-21T02:59:46;8.20;99.90
45066;DHT22;30830;53.704;10.004;2024-02-21T03:02:12;8.20;99.90
45066;DHT22;30830;53.704;10.004;2024-02-21T03:04:39;8.20;99.90
45066;DHT22;30830;53.704;10.004;2024-02-21T03:07:05;8.20;99.90
45066;DHT22;30830;53.704;10.004;2024-02-21T03:09:31;8.10;99.90
45066;DHT22;30830;53.704;10.004;2024-02-21T03:11:57;8.20;99.90
45066;DHT22;30830;53.704;10.004;2024-02-21T03:14:28;8.20;99.90
45066;DHT22;30830;53.704;10.004;2024-02-21T03:16:53;8.20;99.90
45066;DHT22;30830;53.704;10.004;2024-02-21T03:19:19;8.20;99.90
45066;DHT22;30830;53.704;10.004;2024-02-21T03:21:45;8.20;99.90
45066;DHT22;30830;53.704;10.004;2024-02-21T03:24:10;8.20;99.90
45066;DHT22;30830;53.704;10.004;2024-02-21T03:26:35;8.20;99.90
45066;DHT22;30830;53.704;10.004;2024-02-21T03:29:01;8.30;99.90
45066;DHT22;30830;53.704;10.004;2024-02-21T03:31:27;8.30;99.90
45066;DHT22;30830;53.704;10.004;2024-02-21T03:33:52;8.30;99.90
45066;DHT22;30830;53.704;10.004;2024-02-21T03:36:18;8.30;99.90
45066;DHT22;30830;53.704;10.004;2024-02-21T03:38:44;8.30;99.90
45066;DHT22;30830;53.704;10.004;2024-02-21T03:41:10;8.30;99.90
45066;DHT22;30830;53.704;10.004;2024-02-21T03:43:37;8.30;99.90
45066;DHT22;30830;53.704;10.004;2024-02-21T03:46:03;8.30;99.90
45066;DHT22;30830;53.704;10.004;2024-02-21T03:48:29;8.30;99.90
45066;DHT22;30830;53.704;10.004;2024-02-21T03:50:54;8.30;99.90
45066;DHT22;30830;53.704;10.004;2024-02-21T03:53:20;8.30;99.90
45066;DHT22;30830;53.704;10.004;2024-02-21T03:55:45;8.30;99.90
45066;DHT22;30830;53.704;10.004;2024-02-21T03:58:11;8.30;99.90
45066;DHT22;30830;53.704;10.004;2024-02-21T04:00:36;8.30;99.90
45066;DHT22;30830;53.704;10.004;2024-02-21T04:03:02;8.30;99.90
45066;DHT22;30830;53.704;10.004;2024-02-21T04:05:28;8.30;99.90
45066;DHT22;30830;53.704;10.004;2024-02-21T04:07:53;8.30;99.90
45066;DHT22;30830;53.704;10.004;2024-02-21T04:10:19;8.30;99.90
45066;DHT22;30830;53.704;10.004;2024-02-21T04:12:44;8.30;99.90
45066;DHT22;30830;53.704;10.004;2024-02-21T04:15:10;8.30;99.90
45066;DHT22;30830;53.704;10.004;2024-02-21T04:17:36;8.30;99.90
45066;DHT22;30830;53.704;10.004;2024-02-21T04:20:05;8.30;99.90
45066;DHT22;30830;53.704;10.004;2024-02-21T04:22:34;8.30;99.90
45066;DHT22;30830;53.704;10.004;2024-02-21T04:25:00;8.30;99.90
45066;DHT22;30830;53.704;10.004;2024-02-21T04:27:26;8.20;99.90
45066;DHT22;30830;53.704;10.004;2024-02-21T04:29:52;8.30;99.90
45066;DHT22;30830;53.704;10.004;2024-02-21T04:32:18;8.30;99.90
45066;DHT22;30830;53.704;10.004;2024-02-21T04:34:44;8.20;99.90
45066;DHT22;30830;53.704;10.004;2024-02-21T04:37:09;8.20;99.90
45066;DHT22;30830;53.704;10.004;2024-02-21T04:39:35;8.30;99.90
45066;DHT22;30830;53.704;10.004;2024-02-21T04:42:01;8.30;99.90
45066;DHT22;30830;53.704;10.004;2024-02-21T04:44:26;8.20;99.90
45066;DHT22;30830;53.704;10.004;2024-02-21T04:46:52;8.30;99.90
45066;DHT22;30830;53.704;10.004;2024-02-21T04:49:17;8.20;99.90
45066;DHT22;30830;53.704;10.004;2024-02-21T04:51:43;8.20;99.90
45066;DHT22;30830;53.704;10.004;2024-02-21T04:54:08;8.20;99.90
45066;DHT22;30830;53.704;10.004;2024-02-21T04:56:34;8.20;99.90
45066;DHT22;30830;53.704;10.004;2024-02-21T04:59:00;8.20;99.90
45066;DHT22;30830;53.704;10.004;2024-02-21T05:01:25;8.20;99.90
45066;DHT22;30830;53.704;10.004;2024-02-21T05:03:51;8.20;99.90
45066;DHT22;30830;53.704;10.004;2024-02-21T05:06:16;8.20;99.90
45066;DHT22;30830;53.704;10.004;2024-02-21T05:08:42;8.20;99.90
45066;DHT22;30830;53.704;10.004;2024-02-21T05:11:07;8.20;99.90
45066;DHT22;30830;53.704;10.004;2024-02-21T05:13:33;8.20;99.90
45066;DHT22;30830;53.704;10.004;2024-02-21T05:15:58;8.20;99.90
45066;DHT22;30830;53.704;10.004;2024-02-21T05:18:27;8.20;99.90
45066;DHT22;30830;53.704;10.004;2024-02-21T05:20:52;8.20;99.90
45066;DHT22;30830;53.704;10.004;2024-02-21T05:23:18;8.20;99.90
45066;DHT22;30830;53.704;10.004;2024-02-21T05:25:43;8.20;99.90
45066;DHT22;30830;53.704;10.004;2024-02-21T05:28:09;8.20;99.90
45066;DHT22;30830;53.704;10.004;2024-02-21T05:30:35;8.20;99.90
45066;DHT22;30830;53.704;10.004;2024-02-21T05:33:04;8.20;99.90
45066;DHT22;30830;53.704;10.004;2024-02-21T05:35:30;8.20;99.90
45066;DHT22;30830;53.704;10.004;2024-02-21T05:37:56;8.20;99.90
45066;DHT22;30830;53.704;10.004;2024-02-21T05:40:21;8.20;99.90
45066;DHT22;30830;53.704;10.004;2024-02-21T05:42:47;8.20;99.90
45066;DHT22;30830;53.704;10.004;2024-02-21T05:45:13;8.20;99.90
45066;DHT22;30830;53.704;10.004;2024-02-21T05:47:40;8.20;99.90
45066;DHT22;30830;53.704;10.004;2024-02-21T05:50:06;8.20;99.90
45066;DHT22;30830;53.704;10.004;2024-02-21T05:52:31;8.20;99.90
45066;DHT22;30830;53.704;10.004;2024-02-21T05:54:57;8.20;99.90
45066;DHT22;30830;53.704;10.004;2024-02-21T05:57:22;8.20;99.90
45066;DHT22;30830;53.704;10.004;2024-02-21T05:59:48;8.20;99.90
45066;DHT22;30830;53.704;10.004;2024-02-21T06:02:13;8.20;99.90
45066;DHT22;30830;53.704;10.004;2024-02-21T06:04:39;8.20;99.90
45066;DHT22;30830;53.704;10.004;2024-02-21T06:07:04;8.20;99.90
45066;DHT22;30830;53.704;10.004;2024-02-21T06:09:30;8.20;99.90
45066;DHT22;30830;53.704;10.004;2024-02-21T06:11:57;8.20;99.90
45066;DHT22;30830;53.704;10.004;2024-02-21T06:14:22;8.20;99.90
45066;DHT22;30830;53.704;10.004;2024-02-21T06:16:48;8.20;99.90
45066;DHT22;30830;53.704;10.004;2024-02-21T06:19:13;8.20;99.90
45066;DHT22;30830;53.704;10.004;2024-02-21T06:21:39;8.20;99.90
45066;DHT22;30830;53.704;10.004;2024-02-21T06:24:04;8.20;99.90
45066;DHT22;30830;53.704;10.004;2024-02-21T06:26:30;8.20;99.90
45066;DHT22;30830;53.704;10.004;2024-02-21T06:28:56;8.20;99.90
45066;DHT22;30830;53.704;10.004;2024-02-21T06:31:21;8.20;99.90
45066;DHT22;30830;53.704;10.004;2024-02-21T06:33:47;8.20;99.90
45066;DHT22;30830;53.704;10.004;2024-02-21T06:36:12;8.20;99.90
45066;DHT22;30830;53.704;10.004;2024-02-21T06:38:38;8.20;99.90
45066;DHT22;30830;53.704;10.004;2024-02-21T06:41:04;8.20;99.90
45066;DHT22;30830;53.704;10.004;2024-02-21T06:43:29;8.20;99.90
45066;DHT22;30830;53.704;10.004;2024-02-21T06:45:55;8.20;99.90
45066;DHT22;30830;53.704;10.004;2024-02-21T06:48:22;8.20;99.90
45066;DHT22;30830;53.704;10.004;2024-02-21T06:50:48;8.20;99.90
45066;DHT22;30830;53.704;10.004;2024-02-21T06:53:13;8.20;99.90
45066;DHT22;30830;53.704;10.004;2024-02-21T06:55:39;8.20;99.90
45066;DHT22;30830;53.704;10.004;2024-02-21T06:58:05;8.20;99.90
45066;DHT22;30830;53.704;10.004;2024-02-21T07:00:30;8.20;99.90
45066;DHT22;30830;53.704;10.004;2024-02-21T07:02:56;8.20;99.90
45066;DHT22;30830;53.704;10.004;2024-02-21T07:05:22;8.20;99.90
45066;DHT22;30830;53.704;10.004;2024-02-21T07:07:47;8.20;99.90
45066;DHT22;30830;53.704;10.004;2024-02-21T07:10:13;8.20;99.90
45066;DHT22;30830;53.704;10.004;2024-02-21T07:12:38;8.30;99.90
45066;DHT22;30830;53.704;10.004;2024-02-21T07:15:07;8.20;99.90
45066;DHT22;30830;53.704;10.004;2024-02-21T07:17:33;8.20;99.90
45066;DHT22;30830;53.704;10.004;2024-02-21T07:19:58;8.20;99.90
45066;DHT22;30830;53.704;10.004;2024-02-21T07:22:25;8.20;99.90
45066;DHT22;30830;53.704;10.004;2024-02-21T07:24:50;8.20;99.90
45066;DHT22;30830;53.704;10.004;2024-02-21T07:27:16;8.20;99.90
45066;DHT22;30830;53.704;10.004;2024-02-21T07:29:42;8.20;99.90
45066;DHT22;30830;53.704;10.004;2024-02-21T07:32:07;8.20;99.90
45066;DHT22;30830;53.704;10.004;2024-02-21T07:34:33;8.30;99.90
45066;DHT22;30830;53.704;10.004;2024-02-21T07:36:58;8.30;99.90
45066;DHT22;30830;53.704;10.004;2024-02-21T07:39:24;8.30;99.90
45066;DHT22;30830;53.704;10.004;2024-02-21T07:41:50;8.30;99.90
45066;DHT22;30830;53.704;10.004;2024-02-21T07:44:15;8.30;99.90
45066;DHT22;30830;53.704;10.004;2024-02-21T07:46:41;8.30;99.90
45066;DHT22;30830;53.704;10.004;2024-02-21T07:49:06;8.30;99.90
45066;DHT22;30830;53.704;10.004;2024-02-21T07:51:32;8.30;99.90
45066;DHT22;30830;53.704;10.004;2024-02-21T07:53:58;8.30;99.90
45066;DHT22;30830;53.704;10.004;2024-02-21T07:56:23;8.30;99.90
45066;DHT22;30830;53.704;10.004;2024-02-21T07:58:49;8.30;99.90
45066;DHT22;30830;53.704;10.004;2024-02-21T08:01:21;8.30;99.90
45066;DHT22;30830;53.704;10.004;2024-02-21T08:03:46;8.30;99.90
45066;DHT22;30830;53.704;10.004;2024-02-21T08:06:12;8.40;99.90
45066;DHT22;30830;53.704;10.004;2024-02-21T08:08:38;8.40;99.90
45066;DHT22;30830;53.704;10.004;2024-02-21T08:11:04;8.30;99.90
45066;DHT22;30830;53.704;10.004;2024-02-21T08:13:29;8.40;99.90
45066;DHT22;30830;53.704;10.004;2024-02-21T08:15:55;8.40;99.90
45066;DHT22;30830;53.704;10.004;2024-02-21T08:18:20;8.40;99.90
45066;DHT22;30830;53.704;10.004;2024-02-21T08:20:46;8.40;99.90
45066;DHT22;30830;53.704;10.004;2024-02-21T08:23:11;8.40;99.90
45066;DHT22;30830;53.704;10.004;2024-02-21T08:25:37;8.40;99.90
45066;DHT22;30830;53.704;10.004;2024-02-21T08:28:03;8.40;99.90
45066;DHT22;30830;53.704;10.004;2024-02-21T08:30:28;8.40;99.90
45066;DHT22;30830;53.704;10.004;2024-02-21T08:32:54;8.40;99.90
45066;DHT22;30830;53.704;10.004;2024-02-21T08:35:20;8.40;99.90
45066;DHT22;30830;53.704;10.004;2024-02-21T08:37:48;8.40;99.90
45066;DHT22;30830;53.704;10.004;2024-02-21T08:40:14;8.40;99.90
45066;DHT22;30830;53.704;10.004;2024-02-21T08:42:43;8.50;99.90
45066;DHT22;30830;53.704;10.004;2024-02-21T08:45:09;8.50;99.90
45066;DHT22;30830;53.704;10.004;2024-02-21T08:47:35;8.50;99.90
45066;DHT22;30830;53.704;10.004;2024-02-21T08:50:02;8.50;99.90
45066;DHT22;30830;53.704;10.004;2024-02-21T08:52:27;8.50;99.90
45066;DHT22;30830;53.704;10.004;2024-02-21T08:54:53;8.50;99.90
45066;DHT22;30830;53.704;10.004;2024-02-21T08:57:19;8.60;99.90
45066;DHT22;30830;53.704;10.004;2024-02-21T08:59:45;8.60;99.90
45066;DHT22;30830;53.704;10.004;2024-02-21T09:02:10;8.60;99.90
45066;DHT22;30830;53.704;10.004;2024-02-21T09:04:36;8.60;99.90
45066;DHT22;30830;53.704;10.004;2024-02-21T09:07:01;8.60;99.90
45066;DHT22;30830;53.704;10.004;2024-02-21T09:09:27;8.70;99.90
45066;DHT22;30830;53.704;10.004;2024-02-21T09:11:53;8.70;99.90
45066;DHT22;30830;53.704;10.004;2024-02-21T09:14:19;8.70;99.90
45066;DHT22;30830;53.704;10.004;2024-02-21T09:16:45;8.80;99.90
45066;DHT22;30830;53.704;10.004;2024-02-21T09:19:10;8.80;99.90
45066;DHT22;30830;53.704;10.004;2024-02-21T09:21:39;8.80;99.90
45066;DHT22;30830;53.704;10.004;2024-02-21T09:24:06;8.90;99.90
45066;DHT22;30830;53.704;10.004;2024-02-21T09:26:31;8.90;99.90
45066;DHT22;30830;53.704;10.004;2024-02-21T09:28:57;8.90;99.90
45066;DHT22;30830;53.704;10.004;2024-02-21T09:31:22;9.00;99.90
45066;DHT22;30830;53.704;10.004;2024-02-21T09:33:48;9.00;99.90
45066;DHT22;30830;53.704;10.004;2024-02-21T09:36:14;9.00;99.90
45066;DHT22;30830;53.704;10.004;2024-02-21T09:38:40;9.00;99.90
45066;DHT22;30830;53.704;10.004;2024-02-21T09:41:17;9.10;99.90
45066;DHT22;30830;53.704;10.004;2024-02-21T09:43:45;9.10;99.90
45066;DHT22;30830;53.704;10.004;2024-02-21T09:46:18;9.10;99.90
45066;DHT22;30830;53.704;10.004;2024-02-21T09:51:45;9.00;99.90
45066;DHT22;30830;53.704;10.004;2024-02-21T09:54:13;9.00;99.90
45066;DHT22;30830;53.704;10.004;2024-02-21T09:56:38;9.00;99.90
45066;DHT22;30830;53.704;10.004;2024-02-21T09:59:05;9.00;99.90
45066;DHT22;30830;53.704;10.004;2024-02-21T10:01:31;9.00;99.90
45066;DHT22;30830;53.704;10.004;2024-02-21T10:03:57;9.00;99.90
45066;DHT22;30830;53.704;10.004;2024-02-21T10:06:23;9.00;99.90
45066;DHT22;30830;53.704;10.004;2024-02-21T10:08:53;9.00;99.90
45066;DHT22;30830;53.704;10.004;2024-02-21T10:11:25;9.00;99.90
45066;DHT22;30830;53.704;10.004;2024-02-21T10:13:51;9.00;99.90
45066;DHT22;30830;53.704;10.004;2024-02-21T10:16:27;9.00;99.90
45066;DHT22;30830;53.704;10.004;2024-02-21T10:18:54;9.00;99.90
45066;DHT22;30830;53.704;10.004;2024-02-21T10:21:20;9.00;99.90
45066;DHT22;30830;53.704;10.004;2024-02-21T10:23:48;9.00;99.90
45066;DHT22;30830;53.704;10.004;2024-02-21T10:26:19;9.00;99.90
45066;DHT22;30830;53.704;10.004;2024-02-21T10:28:46;9.00;99.90
45066;DHT22;30830;53.704;10.004;2024-02-21T10:31:22;9.00;99.90
45066;DHT22;30830;53.704;10.004;2024-02-21T10:33:59;9.00;99.90
45066;DHT22;30830;53.704;10.004;2024-02-21T10:36:25;9.00;99.90
45066;DHT22;30830;53.704;10.004;2024-02-21T10:38:51;9.00;99.90
45066;DHT22;30830;53.704;10.004;2024-02-21T10:41:19;9.10;99.90
45066;DHT22;30830;53.704;10.004;2024-02-21T10:43:50;9.10;99.90
45066;DHT22;30830;53.704;10.004;2024-02-21T10:46:19;9.10;99.90
45066;DHT22;30830;53.704;10.004;2024-02-21T10:48:45;9.00;99.90
45066;DHT22;30830;53.704;10.004;2024-02-21T10:53:44;9.10;99.90
45066;DHT22;30830;53.704;10.004;2024-02-21T10:56:31;9.00;99.90
45066;DHT22;30830;53.704;10.004;2024-02-21T10:59:07;9.00;99.90
45066;DHT22;30830;53.704;10.004;2024-02-21T11:01:33;9.10;99.90
45066;DHT22;30830;53.704;10.004;2024-02-21T11:04:05;9.10;99.90
45066;DHT22;30830;53.704;10.004;2024-02-21T11:06:32;9.10;99.90
45066;DHT22;30830;53.704;10.004;2024-02-21T11:09:10;9.10;99.90
45066;DHT22;30830;53.704;10.004;2024-02-21T11:11:38;9.10;99.90
45066;DHT22;30830;53.704;10.004;2024-02-21T11:14:17;9.20;99.90
45066;DHT22;30830;53.704;10.004;2024-02-21T11:16:43;9.20;99.90
45066;DHT22;30830;53.704;10.004;2024-02-21T11:19:09;9.20;99.90
45066;DHT22;30830;53.704;10.004;2024-02-21T11:21:37;9.10;99.90
45066;DHT22;30830;53.704;10.004;2024-02-21T11:24:06;9.10;99.90
45066;DHT22;30830;53.704;10.004;2024-02-21T11:26:32;9.10;99.90
45066;DHT22;30830;53.704;10.004;2024-02-21T11:29:01;9.10;99.90
45066;DHT22;30830;53.704;10.004;2024-02-21T11:31:44;9.10;99.90
45066;DHT22;30830;53.704;10.004;2024-02-21T11:34:11;9.20;99.90
45066;DHT22;30830;53.704;10.004;2024-02-21T11:36:51;9.10;99.90
45066;DHT22;30830;53.704;10.004;2024-02-21T11:39:24;9.10;99.90
45066;DHT22;30830;53.704;10.004;2024-02-21T11:42:08;9.20;99.90
45066;DHT22;30830;53.704;10.004;2024-02-21T11:44:35;9.10;99.90
45066;DHT22;30830;53.704;10.004;2024-02-21T11:47:03;9.10;99.90
45066;DHT22;30830;53.704;10.004;2024-02-21T11:49:30;9.10;99.90
45066;DHT22;30830;53.704;10.004;2024-02-21T11:52:00;9.10;99.90
45066;DHT22;30830;53.704;10.004;2024-02-21T11:54:27;9.10;99.90
45066;DHT22;30830;53.704;10.004;2024-02-21T11:56:52;9.10;99.90
45066;DHT22;30830;53.704;10.004;2024-02-21T11:59:18;9.10;99.90
45066;DHT22;30830;53.704;10.004;2024-02-21T12:01:43;9.10;99.90
45066;DHT22;30830;53.704;10.004;2024-02-21T12:04:09;9.00;99.90
45066;DHT22;30830;53.704;10.004;2024-02-21T12:06:35;9.10;99.90
45066;DHT22;30830;53.704;10.004;2024-02-21T12:09:01;9.00;99.90
45066;DHT22;30830;53.704;10.004;2024-02-21T12:11:26;9.00;99.90
45066;DHT22;30830;53.704;10.004;2024-02-21T12:14:02;8.90;99.90
45066;DHT22;30830;53.704;10.004;2024-02-21T12:16:38;8.90;99.90
45066;DHT22;30830;53.704;10.004;2024-02-21T12:19:04;8.90;99.90
45066;DHT22;30830;53.704;10.004;2024-02-21T12:21:33;8.90;99.90
45066;DHT22;30830;53.704;10.004;2024-02-21T12:24:22;8.90;99.90
45066;DHT22;30830;53.704;10.004;2024-02-21T12:26:48;8.90;99.90
45066;DHT22;30830;53.704;10.004;2024-02-21T12:29:14;8.90;99.90
45066;DHT22;30830;53.704;10.004;2024-02-21T12:31:40;8.80;99.90
45066;DHT22;30830;53.704;10.004;2024-02-21T12:34:06;8.80;99.90
45066;DHT22;30830;53.704;10.004;2024-02-21T12:36:32;8.80;99.90
45066;DHT22;30830;53.704;10.004;2024-02-21T12:38:59;8.80;99.90
45066;DHT22;30830;53.704;10.004;2024-02-21T12:41:25;8.90;99.90
45066;DHT22;30830;53.704;10.004;2024-02-21T12:43:52;8.90;99.90
45066;DHT22;30830;53.704;10.004;2024-02-21T12:46:18;8.90;99.90
45066;DHT22;30830;53.704;10.004;2024-02-21T12:48:43;8.90;99.90
45066;DHT22;30830;53.704;10.004;2024-02-21T12:51:10;8.90;99.90
45066;DHT22;30830;53.704;10.004;2024-02-21T12:53:36;8.80;99.90
45066;DHT22;30830;53.704;10.004;2024-02-21T12:56:02;8.80;99.90
45066;DHT22;30830;53.704;10.004;2024-02-21T12:58:27;8.80;99.90
45066;DHT22;30830;53.704;10.004;2024-02-21T13:00:57;8.80;99.90
45066;DHT22;30830;53.704;10.004;2024-02-21T13:03:22;8.80;99.90
45066;DHT22;30830;53.704;10.004;2024-02-21T13:05:48;8.80;99.90
45066;DHT22;30830;53.704;10.004;2024-02-21T13:08:13;8.80;99.90
45066;DHT22;30830;53.704;10.004;2024-02-21T13:10:39;8.70;99.90
45066;DHT22;30830;53.704;10.004;2024-02-21T13:13:05;8.70;99.90
45066;DHT22;30830;53.704;10.004;2024-02-21T13:15:30;8.70;99.90
45066;DHT22;30830;53.704;10.004;2024-02-21T13:17:56;8.70;99.90
45066;DHT22;30830;53.704;10.004;2024-02-21T13:20:23;8.70;99.90
45066;DHT22;30830;53.704;10.004;2024-02-21T13:22:49;8.70;99.90
45066;DHT22;30830;53.704;10.004;2024-02-21T13:25:15;8.70;99.90
45066;DHT22;30830;53.704;10.004;2024-02-21T13:27:44;8.70;99.90
45066;DHT22;30830;53.704;10.004;2024-02-21T13:30:10;8.70;99.90
45066;DHT22;30830;53.704;10.004;2024-02-21T13:32:36;8.70;99.90
45066;DHT22;30830;53.704;10.004;2024-02-21T13:35:01;8.70;99.90
45066;DHT22;30830;53.704;10.004;2024-02-21T13:37:28;8.80;99.90
45066;DHT22;30830;53.704;10.004;2024-02-21T13:39:54;8.80;99.90
45066;DHT22;30830;53.704;10.004;2024-02-21T13:42:20;8.90;99.90
45066;DHT22;30830;53.704;10.004;2024-02-21T13:44:45;8.90;99.90
45066;DHT22;30830;53.704;10.004;2024-02-21T13:47:14;8.90;99.90
45066;DHT22;30830;53.704;10.004;2024-02-21T13:49:41;8.90;99.90
45066;DHT22;30830;53.704;10.004;2024-02-21T13:52:08;8.90;99.90
45066;DHT22;30830;53.704;10.004;2024-02-21T13:54:36;8.90;99.90
45066;DHT22;30830;53.704;10.004;2024-02-21T13:57:02;8.90;99.90
45066;DHT22;30830;53.704;10.004;2024-02-21T13:59:28;8.90;99.90
45066;DHT22;30830;53.704;10.004;2024-02-21T14:01:54;8.90;99.90
45066;DHT22;30830;53.704;10.004;2024-02-21T14:04:19;9.00;99.90
45066;DHT22;30830;53.704;10.004;2024-02-21T14:06:45;9.00;99.90
45066;DHT22;30830;53.704;10.004;2024-02-21T14:09:11;9.00;99.90
45066;DHT22;30830;53.704;10.004;2024-02-21T14:11:37;9.00;99.90
45066;DHT22;30830;53.704;10.004;2024-02-21T14:14:04;9.00;99.90
45066;DHT22;30830;53.704;10.004;2024-02-21T14:16:30;9.00;99.90
45066;DHT22;30830;53.704;10.004;2024-02-21T14:18:56;9.10;99.90
45066;DHT22;30830;53.704;10.004;2024-02-21T14:21:23;9.00;99.90
45066;DHT22;30830;53.704;10.004;2024-02-21T14:23:48;9.10;99.90
45066;DHT22;30830;53.704;10.004;2024-02-21T14:26:14;9.10;99.90
45066;DHT22;30830;53.704;10.004;2024-02-21T14:28:40;9.10;99.90
45066;DHT22;30830;53.704;10.004;2024-02-21T14:31:07;9.10;99.90
45066;DHT22;30830;53.704;10.004;2024-02-21T14:33:35;9.10;99.90
45066;DHT22;30830;53.704;10.004;2024-02-21T14:36:01;9.20;99.90
45066;DHT22;30830;53.704;10.004;2024-02-21T14:38:26;9.20;99.90
45066;DHT22;30830;53.704;10.004;2024-02-21T14:40:53;9.20;99.90
45066;DHT22;30830;53.704;10.004;2024-02-21T14:43:19;9.20;99.90
45066;DHT22;30830;53.704;10.004;2024-02-21T14:45:47;9.20;99.90
45066;DHT22;30830;53.704;10.004;2024-02-21T14:48:16;9.20;99.90
45066;DHT22;30830;53.704;10.004;2024-02-21T14:50:42;9.30;99.90
45066;DHT22;30830;53.704;10.004;2024-02-21T14:53:08;9.20;99.90
45066;DHT22;30830;53.704;10.004;2024-02-21T14:55:37;9.20;99.90
45066;DHT22;30830;53.704;10.004;2024-02-21T14:58:06;9.20;99.90
45066;DHT22;30830;53.704;10.004;2024-02-21T15:00:32;9.20;99.90
45066;DHT22;30830;53.704;10.004;2024-02-21T15:02:59;9.20;99.90
45066;DHT22;30830;53.704;10.004;2024-02-21T15:05:25;9.20;99.90
45066;DHT22;30830;53.704;10.004;2024-02-21T15:07:51;9.20;99.90
45066;DHT22;30830;53.704;10.004;2024-02-21T15:10:17;9.20;99.90
45066;DHT22;30830;53.704;10.004;2024-02-21T15:12:45;9.20;99.90
45066;DHT22;30830;53.704;10.004;2024-02-21T15:15:13;9.20;99.90
45066;DHT22;30830;53.704;10.004;2024-02-21T15:17:39;9.20;99.90
45066;DHT22;30830;53.704;10.004;2024-02-21T15:20:06;9.20;99.90
45066;DHT22;30830;53.704;10.004;2024-02-21T15:22:36;9.10;99.90
45066;DHT22;30830;53.704;10.004;2024-02-21T15:25:02;9.10;99.90
45066;DHT22;30830;53.704;10.004;2024-02-21T15:27:30;9.10;99.90
45066;DHT22;30830;53.704;10.004;2024-02-21T15:29:56;9.10;99.90
45066;DHT22;30830;53.704;10.004;2024-02-21T15:32:23;9.10;99.90
45066;DHT22;30830;53.704;10.004;2024-02-21T15:34:49;9.00;99.90